Time;durP1;ratioP1;P1;durP2;ratioP2;P2;SDS_P1;SDS_P2;PMS_P1;PMS_P2;Temp;Humidity;BMP_temperature;BMP_pressure;BME280_temperature;BME280_humidity;BME280_pressure;Samples;Min_cycle;Max_cycle;Signal;HPM_P1;HPM_P2
2023/03/01 00:01:31;;;;;;;5.23;3.83;;;2.50;62.10;;;;;;5010396;28;20253;-75
2023/03/01 00:03:58;;;;;;;5.37;3.87;;;2.50;62.30;;;;;;4993772;28;20605;-74
2023/03/01 00:06:25;;;;;;;6.55;3.60;;;2.50;62.50;;;;;;5010987;28;20178;-75
2023/03/01 00:08:51;;;;;;;4.88;3.30;;;2.50;62.60;;;;;;5009286;28;20170;-74
2023/03/01 00:11:20;;;;;;;5.23;3.00;;;2.40;62.80;;;;;;5010168;28;20178;-75
2023/03/01 00:13:48;;;;;;;5.10;3.60;;;2.40;63.10;;;;;;5010239;28;20186;-75
2023/03/01 00:16:18;;;;;;;4.32;3.30;;;2.40;63.40;;;;;;5004019;28;20214;-75
2023/03/01 00:18:44;;;;;;;5.75;3.55;;;2.40;63.90;;;;;;4973342;28;20170;-75
2023/03/01 00:21:10;;;;;;;3.97;3.35;;;2.40;63.90;;;;;;4989384;28;20174;-75
2023/03/01 00:23:37;;;;;;;4.25;2.78;;;2.30;63.90;;;;;;4990629;28;20171;-74
2023/03/01 00:26:06;;;;;;;4.63;3.22;;;2.30;64.00;;;;;;4991397;28;20178;-75
2023/03/01 00:28:32;;;;;;;5.20;3.08;;;2.30;64.70;;;;;;4990141;28;20185;-75
2023/03/01 00:31:05;;;;;;;6.70;4.40;;;2.20;64.80;;;;;;5005553;28;20598;-75
2023/03/01 00:33:31;;;;;;;6.35;3.88;;;2.30;65.50;;;;;;4973506;28;20594;-75
2023/03/01 00:36:01;;;;;;;7.37;4.13;;;2.20;65.30;;;;;;4994203;28;20201;-74
2023/03/01 00:38:27;;;;;;;5.90;4.00;;;2.20;65.70;;;;;;4988600;28;20174;-74
2023/03/01 00:40:52;;;;;;;5.70;3.47;;;2.20;65.70;;;;;;5004977;28;20175;-74
2023/03/01 00:43:18;;;;;;;3.83;3.40;;;2.20;66.00;;;;;;4990902;28;20218;-75
2023/03/01 00:45:44;;;;;;;4.53;3.50;;;2.10;66.20;;;;;;4989106;28;20214;-75
2023/03/01 00:48:10;;;;;;;8.33;3.27;;;2.10;66.20;;;;;;4990949;28;20582;-75
2023/03/01 00:50:36;;;;;;;2.97;2.67;;;2.10;66.40;;;;;;4989121;28;20178;-75
2023/03/01 00:53:02;;;;;;;3.83;2.87;;;2.10;66.60;;;;;;4990041;28;20254;-75
2023/03/01 00:55:27;;;;;;;6.88;3.58;;;2.10;66.90;;;;;;4996846;28;20652;-75
2023/03/01 00:57:53;;;;;;;4.60;3.80;;;2.00;66.80;;;;;;4992212;28;20174;-75
2023/03/01 01:00:19;;;;;;;5.40;3.00;;;2.10;67.30;;;;;;5008695;28;20182;-75
2023/03/01 01:02:47;;;;;;;4.38;3.47;;;2.00;67.40;;;;;;5008542;28;20197;-74
2023/03/01 01:05:13;;;;;;;4.65;3.00;;;2.00;67.50;;;;;;5010266;28;20593;-74
2023/03/01 01:07:39;;;;;;;5.50;3.17;;;2.00;67.30;;;;;;5009856;28;20167;-75
2023/03/01 01:10:06;;;;;;;3.72;3.28;;;2.00;67.50;;;;;;5009780;28;20689;-74
2023/03/01 01:12:32;;;;;;;3.78;3.20;;;2.00;68.10;;;;;;5009795;28;20168;-74
2023/03/01 01:14:58;;;;;;;4.68;3.30;;;2.00;68.20;;;;;;5012793;28;20222;-74
2023/03/01 01:17:24;;;;;;;4.70;3.40;;;2.00;68.40;;;;;;5010166;28;20182;-74
2023/03/01 01:19:49;;;;;;;4.03;2.80;;;2.00;68.50;;;;;;4989402;28;20578;-75
2023/03/01 01:22:15;;;;;;;2.97;2.40;;;2.00;68.80;;;;;;5005413;28;21245;-74
2023/03/01 01:24:41;;;;;;;4.93;3.80;;;2.00;69.30;;;;;;5005447;28;20207;-74
2023/03/01 01:27:07;;;;;;;8.27;3.43;;;2.00;68.80;;;;;;4973248;28;20183;-74
2023/03/01 01:29:32;;;;;;;4.50;3.50;;;2.00;69.30;;;;;;4973621;28;20183;-74
2023/03/01 01:31:58;;;;;;;6.03;3.17;;;2.00;69.30;;;;;;4991987;28;20174;-74
2023/03/01 01:34:24;;;;;;;4.50;2.80;;;2.00;69.10;;;;;;4993572;28;21227;-74
2023/03/01 01:36:53;;;;;;;7.43;2.60;;;2.00;69.30;;;;;;4977064;28;20187;-74
2023/03/01 01:39:20;;;;;;;4.68;3.90;;;2.00;70.10;;;;;;4993942;28;20674;-74
2023/03/01 01:41:46;;;;;;;4.93;3.03;;;2.00;69.70;;;;;;4976581;28;20270;-74
2023/03/01 01:44:23;;;;;;;5.22;3.08;;;2.00;70.10;;;;;;4993262;28;20606;-74
2023/03/01 01:46:53;;;;;;;4.00;3.60;;;2.00;70.50;;;;;;4995534;28;20174;-75
2023/03/01 01:49:31;;;;;;;4.68;3.85;;;2.00;70.80;;;;;;4996089;28;20168;-74
2023/03/01 01:52:13;;;;;;;4.43;3.53;;;2.00;70.80;;;;;;5001481;28;20240;-75
2023/03/01 01:54:41;;;;;;;4.25;3.33;;;2.00;71.80;;;;;;5032193;28;20248;-74
2023/03/01 01:57:11;;;;;;;5.70;3.80;;;2.00;70.80;;;;;;4999980;28;20696;-74
2023/03/01 01:59:38;;;;;;;5.43;3.00;;;2.00;70.90;;;;;;5016603;28;20202;-74
2023/03/01 02:02:04;;;;;;;4.65;3.47;;;2.00;71.10;;;;;;5005728;28;20305;-74
2023/03/01 02:04:55;;;;;;;5.30;3.55;;;2.00;70.80;;;;;;5002223;28;20689;-74
2023/03/01 02:07:24;;;;;;;4.82;3.42;;;2.00;72.10;;;;;;5009183;28;20183;-74
2023/03/01 02:09:52;;;;;;;4.45;3.50;;;1.90;71.20;;;;;;4992558;28;20601;-74
2023/03/01 02:12:21;;;;;;;5.70;4.10;;;1.90;71.50;;;;;;5002281;28;20187;-74
2023/03/01 02:14:47;;;;;;;4.65;3.42;;;1.90;71.70;;;;;;5008116;28;20974;-75
2023/03/01 02:17:17;;;;;;;7.38;4.13;;;1.90;71.50;;;;;;4976277;28;20546;-74
2023/03/01 02:19:55;;;;;;;6.30;4.25;;;1.90;72.60;;;;;;4991656;28;20325;-74
2023/03/01 02:22:23;;;;;;;8.95;3.55;;;1.90;72.90;;;;;;4992861;28;20171;-74
2023/03/01 02:25:19;;;;;;;4.20;3.33;;;1.90;72.10;;;;;;4991830;28;20294;-74
2023/03/01 02:28:13;;;;;;;6.65;3.78;;;1.90;72.70;;;;;;4996242;28;20163;-74
2023/03/01 02:31:41;;;;;;;5.57;4.15;;;1.80;72.70;;;;;;4975775;28;20523;-74
2023/03/01 02:33:26;;;;;;;4.65;3.92;;;1.80;71.90;;;;;;4992465;28;20289;-74
2023/03/01 02:35:55;;;;;;;5.95;3.65;;;1.80;72.20;;;;;;4991671;28;20228;-74
2023/03/01 02:38:22;;;;;;;5.72;3.70;;;1.80;72.30;;;;;;4975160;28;20262;-74
2023/03/01 02:40:51;;;;;;;5.13;4.03;;;1.80;72.40;;;;;;4959037;28;20179;-74
2023/03/01 02:43:19;;;;;;;3.97;3.20;;;1.80;72.80;;;;;;4990603;28;20174;-75
2023/03/01 02:45:53;;;;;;;8.98;3.33;;;1.80;72.80;;;;;;4975047;28;20249;-74
2023/03/01 02:48:20;;;;;;;5.30;3.75;;;1.70;73.40;;;;;;4958534;28;20171;-74
2023/03/01 02:51:18;;;;;;;8.73;4.43;;;1.70;73.20;;;;;;4989982;28;20179;-74
2023/03/01 02:54:25;;;;;;;4.70;3.70;;;1.70;73.90;;;;;;4958772;28;20262;-74
2023/03/01 02:56:52;;;;;;;4.93;3.25;;;1.70;74.70;;;;;;4992699;28;20607;-74
2023/03/01 02:59:22;;;;;;;6.70;4.57;;;1.60;73.30;;;;;;4990923;28;20588;-75
2023/03/01 03:01:49;;;;;;;5.90;4.40;;;1.60;73.80;;;;;;4974395;28;20202;-74
2023/03/01 03:04:17;;;;;;;5.60;3.90;;;1.60;74.10;;;;;;5006863;28;20187;-75
2023/03/01 03:06:47;;;;;;;4.78;3.45;;;1.60;74.50;;;;;;4977989;28;20182;-74
2023/03/01 03:09:15;;;;;;;4.25;3.13;;;1.50;74.30;;;;;;4991128;28;20698;-74
2023/03/01 03:11:41;;;;;;;6.35;3.30;;;1.50;74.70;;;;;;4973640;28;20602;-75
2023/03/01 03:14:16;;;;;;;5.15;3.40;;;1.50;74.70;;;;;;5007547;28;20256;-74
2023/03/01 03:16:48;;;;;;;4.47;3.05;;;1.50;75.80;;;;;;4974625;28;20183;-74
2023/03/01 03:19:14;;;;;;;3.78;3.03;;;1.40;75.10;;;;;;4973687;28;20171;-74
2023/03/01 03:21:40;;;;;;;7.70;3.70;;;1.40;75.30;;;;;;5005434;28;20706;-74
2023/03/01 03:24:05;;;;;;;4.40;3.40;;;1.40;75.60;;;;;;4990826;28;20207;-74
2023/03/01 03:26:31;;;;;;;5.30;4.47;;;1.40;75.70;;;;;;4985084;28;20606;-74
2023/03/01 03:28:57;;;;;;;4.70;2.90;;;1.40;75.80;;;;;;4991645;28;20704;-74
2023/03/01 03:31:23;;;;;;;4.47;3.27;;;1.40;75.90;;;;;;4991053;28;20183;-74
2023/03/01 03:33:49;;;;;;;5.90;4.00;;;1.30;76.10;;;;;;4990550;28;20189;-74
2023/03/01 03:36:19;;;;;;;3.83;3.30;;;1.30;76.40;;;;;;4991278;28;20233;-75
2023/03/01 03:38:46;;;;;;;7.93;3.58;;;1.30;77.10;;;;;;4991283;28;20182;-74
2023/03/01 03:41:12;;;;;;;6.32;4.05;;;1.30;77.00;;;;;;4991195;28;20262;-75
2023/03/01 03:43:40;;;;;;;5.38;4.22;;;1.20;77.70;;;;;;4976261;28;20167;-75
2023/03/01 03:46:07;;;;;;;5.25;4.25;;;1.20;77.90;;;;;;4990486;28;20187;-75
2023/03/01 03:48:41;;;;;;;6.00;4.45;;;1.20;77.90;;;;;;4973556;28;20167;-75
2023/03/01 03:51:11;;;;;;;5.20;3.83;;;1.20;78.40;;;;;;4956634;28;20194;-75
2023/03/01 03:53:37;;;;;;;6.05;3.92;;;1.20;78.30;;;;;;4990190;28;20550;-75
2023/03/01 03:56:03;;;;;;;4.97;3.60;;;1.10;78.30;;;;;;5005216;28;20203;-74
2023/03/01 03:58:29;;;;;;;6.00;4.35;;;1.10;78.60;;;;;;5006579;28;20636;-74
2023/03/01 04:00:56;;;;;;;6.07;4.50;;;1.10;79.00;;;;;;4989492;28;20202;-75
2023/03/01 04:03:24;;;;;;;9.65;4.53;;;1.10;79.20;;;;;;5006256;28;20190;-75
2023/03/01 04:05:50;;;;;;;6.40;4.53;;;1.00;79.90;;;;;;4973273;28;20202;-74
2023/03/01 04:08:19;;;;;;;7.10;4.80;;;1.00;79.20;;;;;;4973985;28;20608;-74
2023/03/01 04:10:48;;;;;;;6.10;3.78;;;1.00;79.40;;;;;;5006000;28;20685;-74
2023/03/01 04:13:19;;;;;;;5.65;4.20;;;1.00;79.80;;;;;;5005626;28;20190;-75
2023/03/01 04:15:52;;;;;;;5.53;4.38;;;1.00;80.10;;;;;;4973555;28;20249;-74
2023/03/01 04:18:20;;;;;;;9.90;5.38;;;0.90;79.90;;;;;;4973634;28;20171;-75
2023/03/01 04:20:46;;;;;;;8.00;5.50;;;0.90;80.60;;;;;;4963011;28;20179;-74
2023/03/01 04:23:19;;;;;;;7.05;4.30;;;0.90;80.60;;;;;;4990760;28;20525;-74
2023/03/01 04:25:53;;;;;;;7.72;4.20;;;0.90;81.30;;;;;;4991217;28;20218;-74
2023/03/01 04:28:26;;;;;;;6.82;4.95;;;0.80;81.10;;;;;;4989601;28;20183;-74
2023/03/01 04:30:54;;;;;;;5.13;3.88;;;0.80;81.00;;;;;;4989463;28;20182;-75
2023/03/01 04:33:20;;;;;;;6.18;4.45;;;0.80;81.20;;;;;;4972987;28;20319;-74
2023/03/01 04:35:45;;;;;;;5.80;4.10;;;0.80;82.20;;;;;;5006189;28;20385;-74
2023/03/01 04:38:11;;;;;;;5.50;3.63;;;0.80;83.10;;;;;;4957901;28;20229;-74
2023/03/01 04:40:38;;;;;;;7.33;5.03;;;0.70;82.80;;;;;;4990389;28;20202;-74
2023/03/01 04:43:04;;;;;;;6.35;4.78;;;0.70;83.30;;;;;;4974067;28;20616;-74
2023/03/01 04:45:34;;;;;;;6.32;4.10;;;0.70;83.30;;;;;;4989676;28;20210;-74
2023/03/01 04:48:00;;;;;;;8.52;5.10;;;0.70;83.40;;;;;;4990152;28;20822;-74
2023/03/01 04:50:27;;;;;;;8.38;5.10;;;0.70;83.50;;;;;;4956679;28;20178;-74
2023/03/01 04:52:53;;;;;;;6.18;4.82;;;0.60;83.60;;;;;;4989772;28;20186;-74
2023/03/01 04:55:20;;;;;;;7.43;5.20;;;0.60;83.90;;;;;;4972843;28;20210;-74
2023/03/01 04:57:46;;;;;;;5.40;4.23;;;0.60;84.00;;;;;;5010142;28;20179;-74
2023/03/01 05:00:20;;;;;;;7.85;4.25;;;0.60;83.80;;;;;;4990440;28;20656;-74
2023/03/01 05:02:53;;;;;;;7.38;4.50;;;0.60;84.30;;;;;;5005604;28;20178;-74
2023/03/01 05:05:32;;;;;;;5.70;5.10;;;0.50;85.00;;;;;;5006148;28;20195;-74
2023/03/01 05:08:00;;;;;;;6.18;4.45;;;0.50;85.30;;;;;;5009101;28;20210;-74
2023/03/01 05:10:29;;;;;;;7.10;4.53;;;0.50;84.60;;;;;;5009235;28;20233;-74
2023/03/01 05:12:57;;;;;;;8.00;4.53;;;0.50;84.80;;;;;;4992090;28;20552;-74
2023/03/01 05:15:25;;;;;;;6.60;4.90;;;0.50;84.80;;;;;;4976674;28;20272;-73
2023/03/01 05:17:52;;;;;;;8.95;5.30;;;0.40;85.30;;;;;;4976413;28;20171;-74
2023/03/01 05:20:18;;;;;;;8.63;5.10;;;0.40;85.60;;;;;;4992436;28;20233;-74
2023/03/01 05:22:43;;;;;;;12.50;4.80;;;0.40;85.70;;;;;;4976689;28;20187;-73
2023/03/01 05:25:09;;;;;;;7.27;5.17;;;0.40;85.90;;;;;;5009119;28;20202;-74
2023/03/01 05:27:35;;;;;;;5.43;4.77;;;0.40;86.00;;;;;;4976996;28;20577;-74
2023/03/01 05:30:13;;;;;;;7.10;5.20;;;0.30;86.20;;;;;;5008559;28;20682;-74
2023/03/01 05:32:47;;;;;;;8.10;5.25;;;0.30;86.50;;;;;;4976444;28;20681;-74
2023/03/01 05:35:15;;;;;;;6.95;5.45;;;0.30;87.10;;;;;;5011005;28;20852;-74
2023/03/01 05:37:47;;;;;;;8.45;6.43;;;0.30;87.10;;;;;;4996115;28;20632;-73
2023/03/01 05:40:17;;;;;;;6.30;5.20;;;0.30;87.80;;;;;;4992371;28;20273;-74
2023/03/01 05:42:52;;;;;;;8.07;5.70;;;0.30;87.60;;;;;;5009055;28;20175;-74
2023/03/01 05:45:18;;;;;;;7.15;4.13;;;0.30;88.20;;;;;;5008812;28;20681;-73
2023/03/01 05:47:46;;;;;;;8.00;5.35;;;0.30;87.70;;;;;;5009086;28;20237;-74
2023/03/01 05:50:22;;;;;;;7.43;5.20;;;0.30;88.20;;;;;;4992580;28;20269;-74
2023/03/01 05:52:50;;;;;;;7.40;5.32;;;0.30;88.60;;;;;;4992234;28;20237;-74
2023/03/01 05:55:21;;;;;;;6.80;5.20;;;0.30;88.30;;;;;;4994001;28;20293;-74
2023/03/01 05:57:47;;;;;;;6.93;5.80;;;0.30;89.20;;;;;;4993412;28;20179;-74
2023/03/01 06:00:14;;;;;;;10.88;5.40;;;0.30;88.90;;;;;;4974178;28;20172;-74
2023/03/01 06:02:40;;;;;;;7.88;4.65;;;0.30;89.00;;;;;;4978679;28;20171;-74
2023/03/01 06:05:09;;;;;;;6.00;5.07;;;0.30;89.40;;;;;;5009120;28;20209;-75
2023/03/01 06:07:35;;;;;;;7.38;5.30;;;0.30;89.50;;;;;;4976777;28;20175;-75
2023/03/01 06:10:01;;;;;;;6.45;4.90;;;0.30;89.40;;;;;;4994001;28;20175;-74
2023/03/01 06:12:33;;;;;;;12.48;5.95;;;0.30;89.80;;;;;;4995432;28;20238;-74
2023/03/01 06:15:00;;;;;;;7.18;5.10;;;0.30;90.20;;;;;;5008617;28;20713;-74
2023/03/01 06:17:28;;;;;;;6.82;5.57;;;0.30;90.00;;;;;;4978198;28;20194;-74
2023/03/01 06:19:54;;;;;;;7.72;5.18;;;0.30;90.10;;;;;;5008935;28;20171;-73
2023/03/01 06:22:19;;;;;;;9.77;5.87;;;0.30;90.20;;;;;;4991953;28;20537;-74
2023/03/01 06:24:45;;;;;;;6.57;4.53;;;0.30;90.30;;;;;;4993160;28;20230;-74
2023/03/01 06:27:11;;;;;;;6.77;4.87;;;0.30;90.30;;;;;;4975888;28;20175;-73
2023/03/01 06:29:36;;;;;;;9.07;6.20;;;0.40;90.20;;;;;;4993526;28;20175;-74
2023/03/01 06:32:03;;;;;;;8.33;5.77;;;0.30;90.40;;;;;;4990838;28;20182;-74
2023/03/01 06:34:30;;;;;;;9.45;6.18;;;0.40;90.50;;;;;;4993246;28;20199;-74
2023/03/01 06:36:56;;;;;;;10.40;6.13;;;0.30;90.60;;;;;;4991857;28;20175;-74
2023/03/01 06:39:22;;;;;;;8.00;6.40;;;0.40;90.80;;;;;;4991128;28;20167;-75
2023/03/01 06:41:47;;;;;;;8.83;6.53;;;0.40;90.90;;;;;;4990749;28;20565;-74
2023/03/01 06:44:13;;;;;;;10.20;5.87;;;0.40;90.90;;;;;;4959349;28;20230;-74
2023/03/01 06:46:40;;;;;;;8.90;6.50;;;0.40;91.10;;;;;;4992652;28;20175;-74
2023/03/01 06:49:09;;;;;;;10.20;6.72;;;0.50;91.20;;;;;;4996768;28;20190;-75
2023/03/01 06:51:36;;;;;;;10.23;6.90;;;0.50;91.30;;;;;;4991621;28;20183;-75
2023/03/01 06:54:06;;;;;;;9.95;6.25;;;0.50;91.40;;;;;;4990904;28;20249;-74
2023/03/01 06:56:32;;;;;;;13.45;7.25;;;0.50;91.60;;;;;;4992807;28;20198;-75
2023/03/01 06:58:58;;;;;;;7.70;5.93;;;0.60;91.60;;;;;;4992456;28;20594;-75
2023/03/01 07:01:24;;;;;;;7.40;5.05;;;0.60;91.70;;;;;;4980311;28;20195;-74
2023/03/01 07:03:50;;;;;;;8.97;6.63;;;0.70;91.80;;;;;;4996004;28;20174;-75
2023/03/01 07:06:15;;;;;;;8.00;5.80;;;0.70;91.80;;;;;;4991275;28;21033;-75
2023/03/01 07:08:41;;;;;;;9.83;6.23;;;0.70;91.90;;;;;;4990465;28;20183;-74
2023/03/01 07:11:07;;;;;;;10.53;7.90;;;0.80;92.10;;;;;;4991843;28;20578;-75
2023/03/01 07:13:33;;;;;;;9.25;7.03;;;0.90;92.20;;;;;;4992224;28;20578;-74
2023/03/01 07:15:59;;;;;;;7.73;6.03;;;0.90;92.40;;;;;;4991893;28;20199;-74
2023/03/01 07:18:25;;;;;;;10.40;7.40;;;1.00;92.40;;;;;;5007861;28;20167;-75
2023/03/01 07:20:51;;;;;;;9.70;6.40;;;1.10;92.40;;;;;;5006210;28;20605;-74
2023/03/01 07:23:16;;;;;;;9.17;6.20;;;1.20;92.50;;;;;;4991868;28;20182;-74
2023/03/01 07:25:42;;;;;;;8.30;5.90;;;1.20;92.50;;;;;;4993112;28;21441;-75
2023/03/01 07:28:08;;;;;;;7.30;5.83;;;1.30;92.30;;;;;;4993155;28;20586;-74
2023/03/01 07:30:33;;;;;;;8.83;6.33;;;1.40;92.30;;;;;;4989217;28;20257;-74
2023/03/01 07:32:59;;;;;;;7.80;6.27;;;1.40;92.20;;;;;;5006747;28;20179;-74
2023/03/01 07:35:26;;;;;;;12.23;7.40;;;1.50;92.30;;;;;;5007335;28;20225;-74
2023/03/01 07:37:52;;;;;;;9.13;6.47;;;1.60;92.40;;;;;;4992393;28;20174;-74
2023/03/01 07:40:19;;;;;;;9.60;7.00;;;1.70;92.20;;;;;;4991625;28;20171;-74
2023/03/01 07:42:44;;;;;;;9.57;7.97;;;1.80;92.30;;;;;;5006223;28;20294;-74
2023/03/01 07:45:11;;;;;;;10.03;6.90;;;1.80;92.20;;;;;;4991867;28;20725;-75
2023/03/01 07:47:36;;;;;;;9.30;7.15;;;1.90;92.30;;;;;;5006534;28;20609;-74
2023/03/01 07:50:03;;;;;;;9.57;6.67;;;2.00;92.40;;;;;;5015407;28;20547;-74
2023/03/01 07:52:30;;;;;;;13.57;6.60;;;2.10;92.30;;;;;;4993121;28;20573;-74
2023/03/01 07:54:56;;;;;;;9.80;6.60;;;2.20;92.50;;;;;;5026547;28;20205;-74
2023/03/01 07:57:22;;;;;;;11.90;8.60;;;2.30;92.60;;;;;;4976292;28;20308;-74
2023/03/01 07:59:48;;;;;;;10.65;7.15;;;2.40;92.50;;;;;;4989461;28;20906;-74
2023/03/01 08:02:14;;;;;;;10.20;7.80;;;2.40;92.40;;;;;;4990866;28;20179;-74
2023/03/01 08:04:41;;;;;;;8.23;6.53;;;2.50;92.60;;;;;;4976724;28;20194;-74
2023/03/01 08:07:07;;;;;;;9.60;7.20;;;2.60;92.60;;;;;;4990350;28;20171;-74
2023/03/01 08:09:37;;;;;;;9.10;6.57;;;2.70;92.70;;;;;;4991309;28;20174;-74
2023/03/01 08:12:04;;;;;;;12.80;7.95;;;2.90;92.70;;;;;;4989527;28;20567;-73
2023/03/01 08:14:30;;;;;;;11.73;7.35;;;3.00;92.90;;;;;;4991303;28;20202;-74
2023/03/01 08:16:56;;;;;;;9.27;6.70;;;3.10;92.70;;;;;;4991023;28;20167;-74
2023/03/01 08:19:22;;;;;;;9.03;8.00;;;3.20;92.60;;;;;;5006511;28;20650;-74
2023/03/01 08:21:48;;;;;;;8.70;7.80;;;3.30;92.70;;;;;;4988395;28;20198;-74
2023/03/01 08:24:14;;;;;;;11.97;7.40;;;3.50;92.90;;;;;;4989895;28;21530;-74
2023/03/01 08:26:40;;;;;;;10.93;7.77;;;3.70;93.00;;;;;;5006092;28;20590;-74
2023/03/01 08:29:06;;;;;;;12.40;8.13;;;4.40;93.70;;;;;;5006413;28;20183;-74
2023/03/01 08:31:37;;;;;;;12.17;7.90;;;5.10;95.00;;;;;;4970651;28;20602;-74
2023/03/01 08:34:06;;;;;;;8.10;6.93;;;6.10;96.30;;;;;;5011356;28;20658;-74
2023/03/01 08:36:39;;;;;;;9.45;7.45;;;7.30;97.10;;;;;;4993136;28;20336;-75
2023/03/01 08:39:07;;;;;;;10.77;7.57;;;8.50;97.60;;;;;;5006004;28;20179;-75
2023/03/01 08:41:33;;;;;;;10.43;8.27;;;9.80;98.40;;;;;;5010885;28;20179;-75
2023/03/01 08:43:58;;;;;;;7.87;7.03;;;11.10;97.70;;;;;;4977519;28;20207;-74
2023/03/01 08:46:26;;;;;;;10.13;8.13;;;12.20;97.10;;;;;;4997895;28;20572;-74
2023/03/01 08:48:52;;;;;;;11.03;8.90;;;13.40;96.30;;;;;;5015693;28;20171;-74
2023/03/01 08:51:19;;;;;;;9.03;8.13;;;14.30;90.30;;;;;;5013189;28;20617;-73
2023/03/01 08:53:45;;;;;;;10.20;7.30;;;15.20;92.10;;;;;;4997189;28;20174;-74
2023/03/01 08:56:11;;;;;;;11.60;7.83;;;16.00;90.40;;;;;;4995362;28;20625;-73
2023/03/01 08:58:39;;;;;;;9.30;8.30;;;16.70;89.80;;;;;;5009816;28;20597;-74
2023/03/01 09:01:09;;;;;;;9.27;6.47;;;17.50;88.00;;;;;;4993905;28;20539;-74
2023/03/01 09:03:35;;;;;;;9.10;7.17;;;18.10;85.90;;;;;;4977427;28;20736;-74
2023/03/01 09:06:02;;;;;;;7.60;6.70;;;18.70;84.40;;;;;;4976917;28;20673;-74
2023/03/01 09:08:28;;;;;;;8.30;7.40;;;19.30;73.90;;;;;;5009941;28;20183;-75
2023/03/01 09:10:54;;;;;;;6.37;5.77;;;19.80;74.00;;;;;;5008924;28;20581;-74
2023/03/01 09:13:20;;;;;;;8.57;7.77;;;20.20;71.60;;;;;;4993976;28;20585;-74
2023/03/01 09:15:45;;;;;;;6.30;5.70;;;20.40;60.60;;;;;;4993630;28;20273;-74
2023/03/01 09:18:11;;;;;;;7.10;5.83;;;20.20;59.80;;;;;;4997033;28;21426;-74
2023/03/01 09:20:37;;;;;;;7.87;6.90;;;19.80;55.40;;;;;;5000732;28;20172;-74
2023/03/01 09:23:02;;;;;;;8.10;7.30;;;19.50;51.20;;;;;;4981740;28;20179;-74
2023/03/01 09:25:28;;;;;;;7.90;6.90;;;19.30;52.20;;;;;;5011348;28;20198;-74
2023/03/01 09:27:54;;;;;;;6.30;5.53;;;19.00;49.20;;;;;;4994143;28;20179;-74
2023/03/01 09:30:21;;;;;;;6.83;6.00;;;18.90;53.20;;;;;;4995077;28;20199;-74
2023/03/01 09:32:47;;;;;;;8.73;6.67;;;19.00;49.90;;;;;;4993039;28;20601;-75
2023/03/01 09:35:13;;;;;;;8.83;6.97;;;19.00;51.20;;;;;;5009424;28;20701;-74
2023/03/01 09:37:42;;;;;;;6.20;5.60;;;19.10;52.10;;;;;;5009337;28;20573;-73
2023/03/01 09:40:18;;;;;;;6.17;4.50;;;19.20;52.00;;;;;;4991196;28;20636;-74
2023/03/01 09:42:51;;;;;;;7.07;5.90;;;19.50;53.10;;;;;;4984060;28;20636;-74
2023/03/01 09:45:35;;;;;;;7.17;5.47;;;19.60;51.70;;;;;;4979468;28;20634;-73
2023/03/01 09:48:02;;;;;;;6.73;5.33;;;19.60;50.70;;;;;;4991366;28;20664;-73
2023/03/01 09:50:35;;;;;;;6.20;5.40;;;19.80;51.20;;;;;;5004216;28;20632;-74
2023/03/01 09:53:02;;;;;;;7.10;5.50;;;20.00;50.60;;;;;;5013189;28;20676;-74
2023/03/01 09:56:00;;;;;;;7.23;4.97;;;20.10;50.20;;;;;;5007084;28;20645;-75
2023/03/01 09:58:52;;;;;;;8.17;5.40;;;20.50;50.20;;;;;;4980854;28;20610;-74
2023/03/01 10:01:45;;;;;;;6.13;5.27;;;20.90;49.80;;;;;;4955455;28;20606;-74
2023/03/01 10:04:46;;;;;;;5.40;4.70;;;21.20;50.10;;;;;;4972884;28;20610;-74
2023/03/01 10:07:15;;;;;;;9.67;5.30;;;21.40;49.20;;;;;;4957211;28;20666;-74
2023/03/01 10:09:44;;;;;;;5.60;5.00;;;21.60;47.60;;;;;;4977113;28;20578;-74
2023/03/01 10:12:17;;;;;;;7.30;6.50;;;21.70;48.00;;;;;;4974692;28;20598;-74
2023/03/01 10:15:00;;;;;;;7.10;6.40;;;21.40;46.70;;;;;;4984061;28;20610;-73
2023/03/01 10:18:00;;;;;;;6.10;5.50;;;21.20;43.00;;;;;;4989891;28;20598;-74
2023/03/01 10:20:33;;;;;;;10.10;7.30;;;21.00;45.90;;;;;;4992185;28;20578;-74
2023/03/01 10:23:00;;;;;;;7.03;6.37;;;20.60;41.70;;;;;;4993111;28;20583;-74
2023/03/01 10:25:53;;;;;;;5.97;5.37;;;20.30;42.70;;;;;;4975834;28;20616;-73
2023/03/01 10:28:42;;;;;;;6.60;5.33;;;20.00;43.50;;;;;;4993274;28;20601;-74
2023/03/01 10:31:16;;;;;;;6.93;5.47;;;19.80;43.30;;;;;;4993079;28;20681;-74
2023/03/01 10:33:42;;;;;;;8.63;5.67;;;19.40;42.10;;;;;;4995692;28;21118;-74
2023/03/01 10:36:08;;;;;;;8.60;6.07;;;19.10;42.70;;;;;;4992510;28;20652;-74
2023/03/01 10:38:56;;;;;;;8.03;5.97;;;18.70;42.70;;;;;;4993375;28;20915;-74
2023/03/01 10:41:24;;;;;;;6.83;5.50;;;18.20;42.00;;;;;;4991787;28;20570;-74
2023/03/01 10:43:59;;;;;;;6.07;5.37;;;18.00;42.10;;;;;;4959232;28;20652;-74
2023/03/01 10:46:34;;;;;;;7.40;5.97;;;17.70;42.90;;;;;;4992271;28;20613;-74
2023/03/01 10:49:13;;;;;;;6.03;5.43;;;17.70;42.90;;;;;;4991739;28;20582;-74
2023/03/01 10:51:41;;;;;;;7.43;5.70;;;17.70;42.70;;;;;;4997975;28;20608;-74
2023/03/01 10:54:17;;;;;;;7.50;6.57;;;17.90;44.10;;;;;;4991735;28;20618;-74
2023/03/01 10:56:56;;;;;;;6.70;5.73;;;17.60;42.00;;;;;;4990919;28;20668;-74
2023/03/01 10:59:38;;;;;;;7.40;6.50;;;17.30;40.70;;;;;;4992743;28;20678;-74
2023/03/01 11:02:28;;;;;;;6.70;6.07;;;17.30;41.70;;;;;;4990916;28;20594;-74
2023/03/01 11:05:15;;;;;;;6.30;5.60;;;17.30;42.00;;;;;;4992320;28;20598;-74
2023/03/01 11:07:55;;;;;;;6.20;4.33;;;17.40;43.60;;;;;;4963760;28;20913;-75
2023/03/01 11:10:35;;;;;;;6.70;5.27;;;17.60;44.00;;;;;;4993155;28;20573;-75
2023/03/01 11:13:19;;;;;;;6.40;4.90;;;17.90;45.10;;;;;;4991030;28;20585;-74
2023/03/01 11:16:06;;;;;;;4.70;4.30;;;18.20;45.10;;;;;;4991671;28;20910;-75
2023/03/01 11:18:32;;;;;;;6.33;5.33;;;18.40;44.10;;;;;;5007026;28;20589;-74
2023/03/01 11:21:00;;;;;;;6.50;5.00;;;18.30;44.00;;;;;;5006402;28;20939;-74
2023/03/01 11:23:29;;;;;;;6.53;5.87;;;18.40;44.80;;;;;;4985841;28;20187;-74
2023/03/01 11:25:56;;;;;;;5.90;5.23;;;18.40;42.40;;;;;;4987168;28;20626;-74
2023/03/01 11:28:23;;;;;;;5.83;4.50;;;18.40;43.70;;;;;;4987400;28;20595;-74
2023/03/01 11:31:05;;;;;;;7.10;5.43;;;18.40;44.30;;;;;;4977230;28;21363;-74
2023/03/01 11:33:36;;;;;;;5.70;4.60;;;18.50;44.00;;;;;;4979557;28;20618;-74
2023/03/01 11:36:11;;;;;;;6.27;5.67;;;18.60;44.20;;;;;;4971675;28;20688;-75
2023/03/01 11:38:38;;;;;;;7.03;6.33;;;18.60;43.40;;;;;;4980120;28;20588;-74
2023/03/01 11:41:05;;;;;;;5.50;4.47;;;18.60;43.60;;;;;;4964816;28;21169;-74
2023/03/01 11:43:53;;;;;;;5.70;5.00;;;18.60;43.60;;;;;;4980668;28;20736;-75
2023/03/01 11:46:31;;;;;;;7.57;5.50;;;18.50;40.70;;;;;;4982156;28;20617;-74
2023/03/01 11:49:09;;;;;;;6.10;5.50;;;18.50;42.70;;;;;;4980938;28;20602;-74
2023/03/01 11:51:59;;;;;;;6.50;5.80;;;18.40;40.50;;;;;;4979903;28;20641;-74
2023/03/01 11:54:52;;;;;;;6.80;6.17;;;18.30;41.80;;;;;;4980471;28;20617;-75
2023/03/01 11:58:09;;;;;;;9.07;5.10;;;18.20;41.60;;;;;;4985050;28;20650;-77
2023/03/01 12:01:01;;;;;;;7.50;6.27;;;18.20;42.40;;;;;;4972266;28;20681;-78
2023/03/01 12:03:33;;;;;;;6.57;4.73;;;18.10;42.50;;;;;;5011607;28;20984;-79
2023/03/01 12:06:09;;;;;;;6.57;5.60;;;18.10;41.80;;;;;;5008264;28;20662;-79
2023/03/01 12:08:56;;;;;;;9.07;6.00;;;18.10;42.70;;;;;;4994616;28;20602;-78
2023/03/01 12:11:46;;;;;;;8.37;4.70;;;18.10;42.40;;;;;;4987558;23;20672;-73
2023/03/01 12:14:52;;;;;;;5.20;4.70;;;17.90;42.00;;;;;;4991354;28;20590;-71
2023/03/01 12:17:36;;;;;;;7.07;5.90;;;17.80;41.60;;;;;;4993682;28;20603;-71
2023/03/01 12:20:14;;;;;;;5.57;4.93;;;17.70;41.70;;;;;;4977653;28;20582;-71
2023/03/01 12:22:46;;;;;;;6.20;5.47;;;17.60;42.20;;;;;;4990582;28;20642;-73
2023/03/01 12:25:15;;;;;;;6.80;6.03;;;17.50;41.90;;;;;;4990397;28;20648;-73
2023/03/01 12:28:01;;;;;;;6.67;6.00;;;17.30;40.60;;;;;;4990771;28;20644;-72
2023/03/01 12:31:05;;;;;;;8.47;6.13;;;17.10;40.70;;;;;;4973779;28;20590;-71
2023/03/01 12:33:39;;;;;;;5.43;4.57;;;16.90;41.00;;;;;;4969150;28;20636;-72
2023/03/01 12:36:18;;;;;;;7.30;5.40;;;16.90;41.80;;;;;;4990130;28;20645;-72
2023/03/01 12:39:21;;;;;;;6.27;5.40;;;16.70;41.40;;;;;;4989525;28;20636;-72
2023/03/01 12:42:15;;;;;;;5.67;4.63;;;16.50;41.10;;;;;;4991134;28;20598;-70
2023/03/01 12:45:23;;;;;;;5.40;4.90;;;16.40;41.70;;;;;;4977939;28;20598;-71
2023/03/01 12:48:24;;;;;;;6.10;5.33;;;16.30;41.10;;;;;;4967041;28;20583;-71
2023/03/01 12:51:16;;;;;;;7.83;6.23;;;16.10;40.70;;;;;;4991064;28;20586;-71
2023/03/01 12:53:48;;;;;;;7.60;6.30;;;15.80;40.50;;;;;;4991637;28;20578;-71
2023/03/01 12:56:37;;;;;;;7.07;5.40;;;15.40;40.10;;;;;;4991281;28;20625;-71
2023/03/01 12:59:17;;;;;;;7.23;4.77;;;14.90;39.80;;;;;;4991300;28;20977;-71
2023/03/01 13:06:03;;;;;;;6.32;5.13;;;13.90;39.20;;;;;;4960129;28;20666;-71
2023/03/01 13:08:41;;;;;;;5.25;4.43;;;13.30;39.30;;;;;;4990869;28;20171;-71
2023/03/01 13:11:20;;;;;;;6.60;5.75;;;12.90;39.40;;;;;;5004669;28;20969;-71
2023/03/01 13:13:46;;;;;;;6.63;5.70;;;12.50;39.50;;;;;;4990287;28;20183;-72
2023/03/01 13:16:48;;;;;;;8.30;6.75;;;12.20;39.60;;;;;;4989732;28;20214;-71
2023/03/01 13:19:21;;;;;;;7.60;6.40;;;11.90;40.00;;;;;;4983833;28;20554;-72